createdAt,value
2023-05-22T00:01:22.881Z,96104.00
2023-05-22T00:03:51.024Z,96090.53
2023-05-22T00:06:18.702Z,96110.16
2023-05-22T00:08:45.697Z,96114.09
2023-05-22T00:11:12.747Z,96104.25
2023-05-22T00:13:39.674Z,96084.41
2023-05-22T00:16:06.993Z,96093.09
2023-05-22T00:18:33.861Z,96092.25
2023-05-22T00:21:00.772Z,96078.16
2023-05-22T00:23:28.458Z,96105.84
2023-05-22T00:25:55.428Z,96110.06
2023-05-22T00:28:22.386Z,96112.72
2023-05-22T00:30:49.243Z,96103.56
2023-05-22T00:33:16.455Z,96089.69
2023-05-22T00:35:43.337Z,96092.63
2023-05-22T00:38:27.024Z,96095.59
2023-05-22T00:40:54.370Z,96089.63
2023-05-22T00:43:21.769Z,96093.78
2023-05-22T00:45:48.775Z,96089.28
2023-05-22T00:48:15.826Z,96061.28
2023-05-22T00:50:44.295Z,96061.28
2023-05-22T00:53:11.544Z,96077.00
2023-05-22T00:55:38.714Z,96061.28
2023-05-22T00:58:09.461Z,96068.00
2023-05-22T01:00:38.313Z,96064.56
2023-05-22T01:03:08.238Z,96090.69
2023-05-22T01:05:40.050Z,96081.41
2023-05-22T01:08:08.693Z,96064.53
2023-05-22T01:10:38.097Z,96092.63
2023-05-22T01:13:09.759Z,96076.75
2023-05-22T01:16:01.839Z,96092.72
2023-05-22T01:18:37.880Z,96096.50
2023-05-22T01:21:22.304Z,96094.03
2023-05-22T01:24:21.241Z,96097.19
2023-05-22T01:27:11.984Z,96067.63
2023-05-22T01:30:00.189Z,96029.22
2023-05-22T01:32:29.322Z,96084.03
2023-05-22T01:35:01.340Z,96069.81
2023-05-22T01:37:28.715Z,96069.94
2023-05-22T01:39:56.546Z,96071.09
2023-05-22T01:42:23.832Z,96071.94
2023-05-22T01:44:50.806Z,96078.44
2023-05-22T01:47:18.348Z,96090.63
2023-05-22T01:49:47.477Z,96085.72
2023-05-22T01:52:36.576Z,96091.16
2023-05-22T01:55:22.987Z,96089.06
2023-05-22T01:57:59.889Z,96092.13
2023-05-22T02:00:29.315Z,96089.19
2023-05-22T02:03:07.892Z,96098.16
2023-05-22T02:05:39.161Z,96067.13
2023-05-22T02:08:07.101Z,96088.75
2023-05-22T02:10:35.433Z,96072.63
2023-05-22T02:13:02.555Z,96086.59
2023-05-22T02:15:30.128Z,96062.88
2023-05-22T02:18:00.620Z,96056.28
2023-05-22T02:20:27.691Z,96054.91
2023-05-22T02:22:54.548Z,96056.84
2023-05-22T02:25:21.608Z,96037.09
2023-05-22T02:27:49.895Z,96069.88
2023-05-22T02:30:17.030Z,96071.13
2023-05-22T02:32:46.245Z,96046.72
2023-05-22T02:35:13.268Z,96037.28
2023-05-22T02:37:40.371Z,96056.94
2023-05-22T02:40:07.842Z,96058.53
2023-05-22T02:42:35.062Z,96064.06
2023-05-22T02:45:02.944Z,96062.81
2023-05-22T02:47:30.222Z,96052.19
2023-05-22T02:49:58.206Z,96050.97
2023-05-22T02:52:25.228Z,96040.63
2023-05-22T02:54:52.144Z,96050.28
2023-05-22T02:57:20.202Z,96033.78
2023-05-22T02:59:47.115Z,96057.69
2023-05-22T03:02:15.574Z,96052.09
2023-05-22T03:04:42.539Z,96067.19
2023-05-22T03:07:09.415Z,96064.84
2023-05-22T03:09:36.453Z,96044.97
2023-05-22T03:12:03.634Z,96051.03
2023-05-22T03:14:30.723Z,96058.81
2023-05-22T03:16:59.168Z,96002.56
2023-05-22T03:19:26.854Z,96054.25
2023-05-22T03:21:54.054Z,96045.03
2023-05-22T03:24:22.234Z,96040.53
2023-05-22T03:26:49.135Z,96069.66
2023-05-22T03:29:21.970Z,96060.75
2023-05-22T03:31:48.968Z,96037.94
2023-05-22T03:34:16.883Z,96048.94
2023-05-22T03:36:46.487Z,96076.13
2023-05-22T03:39:15.922Z,96039.91
2023-05-22T03:41:51.485Z,96059.75
2023-05-22T03:44:18.944Z,96047.09
2023-05-22T03:46:46.559Z,96062.72
2023-05-22T03:49:13.469Z,96054.34
2023-05-22T03:51:40.340Z,96048.13
2023-05-22T03:54:07.277Z,96056.91
2023-05-22T03:56:35.657Z,96038.03
2023-05-22T03:59:02.808Z,96043.22
2023-05-22T04:01:30.126Z,96051.88
2023-05-22T04:03:57.029Z,96049.91
2023-05-22T04:06:23.981Z,96048.72
2023-05-22T04:08:50.898Z,96072.47
2023-05-22T04:11:19.566Z,96064.63
2023-05-22T04:13:49.382Z,96054.38
2023-05-22T04:16:17.699Z,96039.47
2023-05-22T04:18:44.984Z,96060.53
2023-05-22T04:21:12.994Z,96046.06
2023-05-22T04:23:43.461Z,96067.16
2023-05-22T04:26:10.559Z,96062.38
2023-05-22T04:28:38.186Z,96062.81
2023-05-22T04:31:06.931Z,96052.31
2023-05-22T04:33:34.900Z,96059.47
2023-05-22T04:36:02.583Z,96072.75
2023-05-22T04:38:29.530Z,96067.91
2023-05-22T04:40:57.251Z,96034.34
2023-05-22T04:43:26.894Z,96084.97
2023-05-22T04:45:55.013Z,96063.44
2023-05-22T04:48:25.257Z,96088.72
2023-05-22T04:50:52.307Z,96060.00
2023-05-22T04:53:19.209Z,96073.06
2023-05-22T04:55:46.373Z,96037.91
2023-05-22T04:58:13.276Z,96086.00
2023-05-22T05:00:40.395Z,96044.78
2023-05-22T05:03:08.575Z,96052.25
2023-05-22T05:05:35.608Z,96079.31
2023-05-22T05:08:02.690Z,96084.22
2023-05-22T05:10:29.638Z,96056.94
2023-05-22T05:12:56.840Z,96057.34
2023-05-22T05:15:24.099Z,96076.28
2023-05-22T05:17:51.239Z,96032.47
2023-05-22T05:20:18.119Z,96077.94
2023-05-22T05:22:46.405Z,96055.94
2023-05-22T05:25:14.757Z,96040.34
2023-05-22T05:27:42.494Z,96058.66
2023-05-22T05:30:10.956Z,96074.09
2023-05-22T05:32:49.194Z,96073.91
2023-05-22T05:35:33.000Z,96086.59
2023-05-22T05:38:04.127Z,96079.91
2023-05-22T05:40:32.919Z,96069.25
2023-05-22T05:42:59.867Z,96080.50
2023-05-22T05:45:28.276Z,96086.31
2023-05-22T05:47:56.356Z,96049.44
2023-05-22T05:50:24.039Z,96094.03
2023-05-22T05:52:50.964Z,96074.63
2023-05-22T05:55:19.626Z,96100.34
2023-05-22T05:57:47.614Z,96088.63
2023-05-22T06:00:21.139Z,96081.72
2023-05-22T06:02:50.899Z,96068.38
2023-05-22T06:05:42.758Z,96082.19
2023-05-22T06:08:20.053Z,96095.97
2023-05-22T06:10:47.542Z,96083.34
2023-05-22T06:13:32.273Z,96097.13
2023-05-22T06:16:02.164Z,96075.72
2023-05-22T06:18:31.488Z,96085.31
2023-05-22T06:20:59.312Z,96094.44
2023-05-22T06:23:26.568Z,96090.25
2023-05-22T06:25:55.693Z,96085.28
2023-05-22T06:28:23.621Z,96068.09
2023-05-22T06:30:50.489Z,96069.56
2023-05-22T06:33:20.440Z,96098.97
2023-05-22T06:35:47.905Z,96086.63
2023-05-22T06:38:16.099Z,96087.31
2023-05-22T06:40:44.108Z,96073.63
2023-05-22T06:43:18.486Z,96075.19
2023-05-22T06:45:50.554Z,96063.78
2023-05-22T06:48:23.247Z,96093.97
2023-05-22T06:51:15.225Z,96091.47
2023-05-22T06:53:45.357Z,96091.19
2023-05-22T06:56:16.703Z,96060.53
2023-05-22T06:59:06.123Z,96070.84
2023-05-22T07:01:52.953Z,96081.75
2023-05-22T07:04:29.594Z,96097.75
2023-05-22T07:07:00.169Z,96082.25
2023-05-22T07:09:28.260Z,96091.16
2023-05-22T07:11:55.202Z,96083.19
2023-05-22T07:14:22.115Z,96094.16
2023-05-22T07:16:49.228Z,96089.78
2023-05-22T07:19:21.746Z,96095.78
2023-05-22T07:21:48.649Z,96083.16
2023-05-22T07:24:18.666Z,96109.53
2023-05-22T07:26:48.710Z,96104.88
2023-05-22T07:29:17.217Z,96084.78
2023-05-22T07:31:47.539Z,96097.75
2023-05-22T07:34:14.826Z,96086.97
2023-05-22T07:36:42.602Z,96091.47
2023-05-22T07:39:09.930Z,96114.31
2023-05-22T07:41:40.318Z,96082.25
2023-05-22T07:44:09.639Z,96100.56
2023-05-22T07:46:38.502Z,96113.72
2023-05-22T07:49:19.872Z,96104.00
2023-05-22T07:51:47.390Z,96095.88
2023-05-22T07:54:16.121Z,96101.06
2023-05-22T07:56:46.046Z,96116.38
2023-05-22T07:59:16.272Z,96104.84
2023-05-22T08:01:43.453Z,96105.75
2023-05-22T08:04:10.550Z,96089.59
2023-05-22T08:06:37.628Z,96103.00
2023-05-22T08:09:05.119Z,96079.59
2023-05-22T08:11:32.830Z,96088.66
2023-05-22T08:13:59.785Z,96081.13
2023-05-22T08:16:26.763Z,96081.13
2023-05-22T08:18:53.720Z,96076.66
2023-05-22T08:21:20.748Z,96081.50
2023-05-22T08:23:47.645Z,96101.63
2023-05-22T08:26:15.443Z,96079.09
2023-05-22T08:28:44.505Z,96092.63
2023-05-22T08:31:12.178Z,96106.91
2023-05-22T08:33:41.930Z,96098.53
2023-05-22T08:36:08.843Z,96098.38
2023-05-22T08:38:35.786Z,96104.34
2023-05-22T08:41:02.921Z,96108.00
2023-05-22T08:43:29.999Z,96088.84
2023-05-22T08:46:01.138Z,96089.59
2023-05-22T08:48:34.604Z,96101.50
2023-05-22T08:51:06.061Z,96088.53
2023-05-22T08:53:37.253Z,96079.66
2023-05-22T08:56:07.085Z,96101.53
2023-05-22T08:58:36.164Z,96093.94
2023-05-22T09:01:04.709Z,96100.53
2023-05-22T09:03:38.059Z,96067.50
2023-05-22T09:06:10.597Z,96077.88
2023-05-22T09:08:38.487Z,96071.97
2023-05-22T09:11:05.366Z,96083.75
2023-05-22T09:13:32.506Z,96077.88
2023-05-22T09:16:07.914Z,96086.34
2023-05-22T09:18:34.885Z,96058.47
2023-05-22T09:21:04.900Z,96074.69
2023-05-22T09:23:34.367Z,96074.94
2023-05-22T09:28:35.565Z,96092.56
2023-05-22T09:31:04.495Z,96091.56
2023-05-22T09:33:32.532Z,96093.75
2023-05-22T09:35:59.517Z,96068.59
2023-05-22T09:38:29.605Z,96067.03
2023-05-22T09:40:57.445Z,96077.69
2023-05-22T09:43:25.870Z,96089.53
2023-05-22T09:46:02.512Z,96086.63
2023-05-22T09:48:29.636Z,96061.53
2023-05-22T09:51:00.009Z,96081.19
2023-05-22T09:53:29.201Z,96075.63
2023-05-22T09:55:57.362Z,96076.50
2023-05-22T09:58:27.429Z,96074.47
2023-05-22T10:00:58.548Z,96076.19
2023-05-22T10:03:27.627Z,96069.16
2023-05-22T10:05:56.690Z,96071.50
2023-05-22T10:08:50.147Z,96063.06
2023-05-22T10:11:17.754Z,96048.09
2023-05-22T10:13:47.720Z,96049.50
2023-05-22T10:16:16.893Z,96048.84
2023-05-22T10:18:46.577Z,96056.84
2023-05-22T10:21:13.670Z,96040.94
2023-05-22T10:23:41.409Z,96059.56
2023-05-22T10:26:09.009Z,96047.91
2023-05-22T10:28:42.148Z,96058.59
2023-05-22T10:31:23.019Z,96050.59
2023-05-22T10:34:21.381Z,96049.41
2023-05-22T10:36:58.230Z,96054.56
2023-05-22T10:39:57.887Z,96045.13
2023-05-22T10:42:25.116Z,96020.53
2023-05-22T10:44:53.521Z,96034.19
2023-05-22T10:47:20.516Z,96016.88
2023-05-22T10:49:49.832Z,96018.59
2023-05-22T10:52:19.177Z,96037.66
2023-05-22T10:54:46.520Z,96039.03
2023-05-22T10:57:16.432Z,96023.25
2023-05-22T10:59:44.302Z,96021.16
2023-05-22T11:02:22.506Z,96027.56
2023-05-22T11:04:49.742Z,96009.69
2023-05-22T11:07:16.760Z,96011.19
2023-05-22T11:09:47.867Z,96032.63
2023-05-22T11:12:21.604Z,96031.94
2023-05-22T11:14:55.527Z,96025.84
2023-05-22T11:17:30.142Z,96021.88
2023-05-22T11:19:59.036Z,96013.06
2023-05-22T11:22:41.567Z,96016.63
2023-05-22T11:25:19.335Z,96000.59
2023-05-22T11:27:48.064Z,96014.16
2023-05-22T11:30:16.184Z,96017.75
2023-05-22T11:32:45.335Z,96025.75
2023-05-22T11:35:19.805Z,96016.97
2023-05-22T11:37:47.895Z,96010.69
2023-05-22T11:40:19.390Z,96026.19
2023-05-22T11:42:46.709Z,96007.59
2023-05-22T11:45:14.474Z,95986.47
2023-05-22T11:47:42.166Z,96002.84
2023-05-22T11:50:10.601Z,96011.34
2023-05-22T11:52:39.933Z,96006.72
2023-05-22T11:55:27.827Z,95981.16
2023-05-22T11:57:55.953Z,96011.75
2023-05-22T12:00:23.208Z,96005.88
2023-05-22T12:02:50.391Z,95993.06
2023-05-22T12:05:17.411Z,95999.06
2023-05-22T12:07:45.019Z,95998.63
2023-05-22T12:10:13.874Z,95984.19
2023-05-22T12:12:40.891Z,95993.75
2023-05-22T12:15:08.393Z,95994.38
2023-05-22T12:17:38.820Z,95997.84
2023-05-22T12:20:07.457Z,95991.84
2023-05-22T12:22:40.682Z,95998.78
2023-05-22T12:25:15.357Z,95999.38
2023-05-22T12:27:43.827Z,95991.81
2023-05-22T12:30:13.645Z,95994.41
2023-05-22T12:32:41.064Z,95978.97
2023-05-22T12:35:16.141Z,95990.84
2023-05-22T12:37:49.000Z,95991.97
2023-05-22T12:40:16.158Z,95980.06
2023-05-22T12:42:43.277Z,95999.31
2023-05-22T12:45:11.769Z,95990.69
2023-05-22T12:47:38.675Z,95995.66
2023-05-22T12:50:06.153Z,95987.72
2023-05-22T12:52:33.126Z,95960.84
2023-05-22T12:55:00.028Z,95987.78
2023-05-22T12:57:27.095Z,95976.03
2023-05-22T12:59:53.988Z,95978.28
2023-05-22T13:02:21.033Z,95966.34
2023-05-22T13:04:47.955Z,95981.72
2023-05-22T13:07:14.882Z,95986.72
2023-05-22T13:09:41.775Z,95981.28
2023-05-22T13:12:10.768Z,95964.94
2023-05-22T13:14:40.622Z,95960.28
2023-05-22T13:17:08.023Z,95972.00
2023-05-22T13:19:35.217Z,95972.91
2023-05-22T13:22:02.160Z,95955.47
2023-05-22T13:24:30.403Z,95965.09
2023-05-22T13:26:57.358Z,95961.53
2023-05-22T13:29:24.272Z,95941.78
2023-05-22T13:31:51.584Z,95965.06
2023-05-22T13:34:18.786Z,95942.59
2023-05-22T13:36:46.034Z,95960.50
2023-05-22T13:39:12.899Z,95952.91
2023-05-22T13:41:39.842Z,95959.97
2023-05-22T13:44:06.755Z,95953.78
2023-05-22T13:46:33.718Z,95927.56
2023-05-22T13:49:00.715Z,95925.75
2023-05-22T13:51:27.707Z,95949.66
2023-05-22T13:53:54.667Z,95944.34
2023-05-22T13:56:26.540Z,95935.84
2023-05-22T13:58:53.475Z,95938.06
2023-05-22T14:01:20.466Z,95930.94
2023-05-22T14:03:47.545Z,95933.94
2023-05-22T14:06:14.512Z,95940.91
2023-05-22T14:08:41.630Z,95878.75
2023-05-22T14:11:08.606Z,95942.03
2023-05-22T14:13:36.178Z,95922.66
2023-05-22T14:16:03.196Z,95920.13
2023-05-22T14:18:31.523Z,95922.44
2023-05-22T14:20:58.390Z,95914.25
2023-05-22T14:23:25.420Z,95908.63
2023-05-22T14:25:52.319Z,95918.94
2023-05-22T14:28:19.885Z,95908.59
2023-05-22T14:30:46.943Z,95900.22
2023-05-22T14:33:13.882Z,95885.09
2023-05-22T14:35:41.175Z,95889.31
2023-05-22T14:38:08.382Z,95908.50
2023-05-22T14:40:35.266Z,95923.94
2023-05-22T14:43:02.193Z,95909.13
2023-05-22T14:45:29.105Z,95914.69
2023-05-22T14:47:56.026Z,95920.72
2023-05-22T14:50:22.960Z,95887.34
2023-05-22T14:52:50.046Z,95891.41
2023-05-22T14:55:17.843Z,95891.56
2023-05-22T14:57:45.101Z,95874.16
2023-05-22T15:00:12.885Z,95891.84
2023-05-22T15:02:40.708Z,95902.91
2023-05-22T15:05:08.187Z,95898.09
2023-05-22T15:07:43.868Z,95901.31
2023-05-22T15:10:12.394Z,95898.31
2023-05-22T15:12:39.426Z,95880.13
2023-05-22T15:15:06.772Z,95886.84
2023-05-22T15:17:33.706Z,95896.28
2023-05-22T15:20:00.700Z,95869.59
2023-05-22T15:22:27.530Z,95892.50
2023-05-22T15:25:07.991Z,95896.56
2023-05-22T15:27:36.041Z,95886.09
2023-05-22T15:30:03.919Z,95888.88
2023-05-22T15:32:32.605Z,95863.84
2023-05-22T15:34:59.566Z,95848.66
2023-05-22T15:37:27.091Z,95850.94
2023-05-22T15:39:54.044Z,95863.31
2023-05-22T15:42:22.097Z,95876.75
2023-05-22T15:44:49.046Z,95860.88
2023-05-22T15:47:16.874Z,95840.88
2023-05-22T15:49:43.749Z,95847.34
2023-05-22T15:52:10.635Z,95840.94
2023-05-22T15:54:37.530Z,95842.59
2023-05-22T15:57:04.759Z,95834.63
2023-05-22T15:59:31.606Z,95835.06
2023-05-22T16:01:58.635Z,95853.34
2023-05-22T16:04:25.656Z,95840.06
2023-05-22T16:06:52.593Z,95850.88
2023-05-22T16:09:19.992Z,95838.41
2023-05-22T16:11:46.960Z,95842.03
2023-05-22T16:14:13.885Z,95845.72
2023-05-22T16:16:41.246Z,95832.75
2023-05-22T16:19:08.541Z,95846.47
2023-05-22T16:21:36.111Z,95859.69
2023-05-22T16:24:04.891Z,95837.97
2023-05-22T16:26:31.818Z,95863.16
2023-05-22T16:28:58.734Z,95835.19
2023-05-22T16:31:25.665Z,95845.78
2023-05-22T16:33:53.472Z,95860.78
2023-05-22T16:36:20.401Z,95854.19
2023-05-22T16:38:47.309Z,95853.53
2023-05-22T16:41:14.254Z,95824.84
2023-05-22T16:43:41.278Z,95857.13
2023-05-22T16:46:08.201Z,95842.38
2023-05-22T16:48:35.653Z,95838.66
2023-05-22T16:51:02.628Z,95859.19
2023-05-22T16:53:29.574Z,95842.50
2023-05-22T16:55:56.560Z,95830.28
2023-05-22T16:58:23.459Z,95858.13
2023-05-22T17:00:50.573Z,95835.53
2023-05-22T17:03:17.745Z,95823.91
2023-05-22T17:05:45.402Z,95833.41
2023-05-22T17:08:12.389Z,95838.44
2023-05-22T17:10:39.593Z,95832.53
2023-05-22T17:13:06.618Z,95836.34
2023-05-22T17:15:34.062Z,95823.63
2023-05-22T17:18:01.161Z,95825.56
2023-05-22T17:20:29.582Z,95838.88
2023-05-22T17:22:56.646Z,95820.84
2023-05-22T17:25:23.567Z,95824.13
2023-05-22T17:27:50.498Z,95827.22
2023-05-22T17:30:17.930Z,95838.56
2023-05-22T17:32:45.525Z,95849.16
2023-05-22T17:35:12.474Z,95846.94
2023-05-22T17:37:39.471Z,95825.50
2023-05-22T17:40:07.287Z,95808.41
2023-05-22T17:42:34.145Z,95842.28
2023-05-22T17:45:01.152Z,95831.03
2023-05-22T17:47:28.048Z,95834.00
2023-05-22T17:49:54.987Z,95846.78
2023-05-22T17:52:22.103Z,95844.28
2023-05-22T17:54:50.131Z,95845.63
2023-05-22T17:57:17.106Z,95844.34
2023-05-22T17:59:44.317Z,95856.25
2023-05-22T18:02:11.534Z,95833.31
2023-05-22T18:04:38.445Z,95819.09
2023-05-22T18:07:05.596Z,95840.78
2023-05-22T18:09:32.987Z,95836.31
2023-05-22T18:12:01.850Z,95842.78
2023-05-22T18:14:28.784Z,95847.56
2023-05-22T18:16:55.708Z,95825.53
2023-05-22T18:19:22.683Z,95828.03
2023-05-22T18:21:49.675Z,95836.75
2023-05-22T18:24:16.670Z,95843.53
2023-05-22T18:26:43.605Z,95833.06
2023-05-22T18:29:10.564Z,95816.56
2023-05-22T18:31:37.542Z,95834.28
2023-05-22T18:34:04.502Z,95832.25
2023-05-22T18:36:32.011Z,95833.09
2023-05-22T18:38:58.969Z,95832.16
2023-05-22T18:41:26.721Z,95838.00
2023-05-22T18:43:53.660Z,95849.53
2023-05-22T18:46:20.694Z,95834.44
2023-05-22T18:48:47.722Z,95823.47
2023-05-22T18:51:16.756Z,95838.72
2023-05-22T18:53:43.720Z,95847.38
2023-05-22T18:56:10.712Z,95847.56
2023-05-22T18:58:41.600Z,95823.81
2023-05-22T19:01:08.651Z,95823.56
2023-05-22T19:03:35.990Z,95815.91
2023-05-22T19:06:02.965Z,95841.63
2023-05-22T19:08:31.376Z,95848.22
2023-05-22T19:11:01.616Z,95851.09
2023-05-22T19:13:29.586Z,95835.31
2023-05-22T19:15:57.491Z,95834.97
2023-05-22T19:18:24.939Z,95851.06
2023-05-22T19:20:51.815Z,95851.28
2023-05-22T19:23:18.916Z,95843.63
2023-05-22T19:25:45.952Z,95819.50
2023-05-22T19:28:12.954Z,95859.97
2023-05-22T19:30:40.359Z,95862.25
2023-05-22T19:33:09.046Z,95859.34
2023-05-22T19:35:36.197Z,95849.41
2023-05-22T19:38:03.129Z,95840.19
2023-05-22T19:40:30.061Z,95835.94
2023-05-22T19:42:57.226Z,95835.38
2023-05-22T19:45:27.659Z,95857.56
2023-05-22T19:47:55.980Z,95856.91
2023-05-22T19:50:23.012Z,95862.16
2023-05-22T19:52:50.101Z,95856.31
2023-05-22T19:55:17.081Z,95865.88
2023-05-22T19:57:46.356Z,95873.53
2023-05-22T20:00:16.634Z,95869.00
2023-05-22T20:02:43.656Z,95863.84
2023-05-22T20:05:13.308Z,95870.13
2023-05-22T20:07:40.606Z,95862.00
2023-05-22T20:10:10.858Z,95881.47
2023-05-22T20:12:38.219Z,95879.84
2023-05-22T20:15:07.139Z,95871.47
2023-05-22T20:17:34.515Z,95858.94
2023-05-22T20:20:01.559Z,95859.34
2023-05-22T20:22:28.707Z,95886.06
2023-05-22T20:24:56.125Z,95877.69
2023-05-22T20:27:23.039Z,95847.16
2023-05-22T20:29:50.507Z,95877.72
2023-05-22T20:32:17.687Z,95854.03
2023-05-22T20:34:47.925Z,95866.28
2023-05-22T20:37:14.900Z,95867.00
2023-05-22T20:39:46.617Z,95834.91
2023-05-22T20:42:14.686Z,95842.16
2023-05-22T20:44:41.667Z,95846.31
2023-05-22T20:47:09.431Z,95836.53
2023-05-22T20:49:36.400Z,95868.84
2023-05-22T20:52:04.784Z,95849.81
2023-05-22T20:54:34.753Z,95848.78
2023-05-22T20:57:02.413Z,95861.09
2023-05-22T20:59:29.556Z,95880.25
2023-05-22T21:01:58.073Z,95880.34
2023-05-22T21:04:29.150Z,95881.38
2023-05-22T21:06:56.187Z,95871.91
2023-05-22T21:09:23.268Z,95882.53
2023-05-22T21:11:50.261Z,95879.50
2023-05-22T21:14:17.521Z,95852.06
2023-05-22T21:16:44.638Z,95852.41
2023-05-22T21:19:11.599Z,95870.03
2023-05-22T21:21:41.944Z,95846.75
2023-05-22T21:24:12.273Z,95855.13
2023-05-22T21:26:39.326Z,95878.78
2023-05-22T21:29:06.543Z,95871.50
2023-05-22T21:31:35.324Z,95861.16
2023-05-22T21:34:02.844Z,95856.72
2023-05-22T21:36:29.725Z,95845.66
2023-05-22T21:38:57.911Z,95869.31
2023-05-22T21:41:24.762Z,95858.25
2023-05-22T21:43:51.683Z,95859.41
2023-05-22T21:46:18.955Z,95857.88
2023-05-22T21:48:46.418Z,95847.94
2023-05-22T21:51:13.313Z,95860.16
2023-05-22T21:53:40.220Z,95855.19
2023-05-22T21:56:07.338Z,95845.63
2023-05-22T21:58:34.300Z,95857.84
2023-05-22T22:01:01.553Z,95825.41
2023-05-22T22:03:28.656Z,95842.56
2023-05-22T22:05:55.827Z,95815.31
2023-05-22T22:08:22.758Z,95859.31
2023-05-22T22:10:49.705Z,95855.47
2023-05-22T22:13:16.835Z,95844.03
2023-05-22T22:15:43.977Z,95859.75
2023-05-22T22:18:15.080Z,95837.59
2023-05-22T22:20:45.274Z,95833.41
2023-05-22T22:23:12.862Z,95820.69
2023-05-22T22:25:39.798Z,95861.59
2023-05-22T22:28:07.618Z,95845.94
2023-05-22T22:30:35.616Z,95853.94
2023-05-22T22:33:02.781Z,95862.75
2023-05-22T22:35:29.918Z,95860.06
2023-05-22T22:37:57.115Z,95868.81
2023-05-22T22:40:26.594Z,95848.78
2023-05-22T22:42:53.960Z,95870.16
2023-05-22T22:45:20.975Z,95857.59
2023-05-22T22:47:48.487Z,95846.97
2023-05-22T22:50:15.485Z,95859.97
2023-05-22T22:52:45.725Z,95855.78
2023-05-22T22:55:13.721Z,95854.22
2023-05-22T22:57:43.488Z,95840.72
2023-05-22T23:00:13.530Z,95862.22
2023-05-22T23:02:40.885Z,95864.59
2023-05-22T23:05:08.421Z,95847.41
2023-05-22T23:07:35.969Z,95855.38
2023-05-22T23:10:03.175Z,95838.34
2023-05-22T23:12:33.060Z,95851.00
2023-05-22T23:15:00.037Z,95850.31
2023-05-22T23:17:26.946Z,95856.31
2023-05-22T23:19:53.934Z,95852.38
2023-05-22T23:22:20.850Z,95812.75
2023-05-22T23:24:47.744Z,95855.16
2023-05-22T23:27:15.208Z,95834.44
2023-05-22T23:29:42.084Z,95848.91
2023-05-22T23:32:08.948Z,95860.00
2023-05-22T23:34:35.984Z,95864.53
2023-05-22T23:37:03.135Z,95840.44
2023-05-22T23:39:30.095Z,95862.41
2023-05-22T23:41:56.963Z,95864.09
2023-05-22T23:44:23.972Z,95870.94
2023-05-22T23:46:50.971Z,95834.34
2023-05-22T23:49:17.901Z,95860.72
2023-05-22T23:51:44.783Z,95844.28
2023-05-22T23:54:13.394Z,95817.03
2023-05-22T23:56:40.258Z,95815.84
2023-05-22T23:59:07.145Z,95797.59
